createdAt,value
2017-08-28T15:15:03.124Z,22.65
2017-08-28T15:20:02.522Z,22.58
2017-08-28T15:25:24.728Z,22.52
2017-08-28T15:30:02.961Z,22.44
2017-08-28T15:35:02.530Z,22.39
2017-08-28T15:40:02.757Z,22.34
2017-08-28T15:45:03.005Z,22.22
2017-08-28T15:50:02.887Z,22.14
2017-08-28T15:55:03.154Z,22.08
2017-08-28T16:00:02.332Z,22.02
2017-08-28T16:05:02.873Z,21.92
2017-08-28T16:10:03.086Z,21.85
2017-08-28T16:15:02.296Z,21.76
2017-08-28T16:20:02.375Z,21.66
2017-08-28T16:25:02.585Z,21.54
2017-08-28T16:30:02.801Z,21.42
2017-08-28T16:35:03.100Z,21.34
2017-08-28T16:40:02.331Z,21.22
2017-08-28T16:45:02.553Z,21.1
2017-08-28T16:50:02.301Z,20.99
2017-08-28T16:55:02.487Z,20.91
2017-08-28T17:00:02.705Z,20.81
2017-08-28T17:05:02.739Z,20.7
2017-08-28T17:10:02.977Z,20.61
2017-08-28T17:15:02.189Z,20.49
2017-08-28T17:20:02.713Z,20.34
2017-08-28T17:25:02.907Z,20.16
2017-08-28T17:30:03.123Z,19.99
2017-08-28T17:35:02.334Z,19.82
2017-08-28T17:40:02.517Z,19.65
2017-08-28T17:45:02.774Z,19.45
2017-08-28T17:50:02.413Z,19.26
2017-08-28T17:55:02.671Z,19.07
2017-08-28T18:00:02.882Z,18.88
2017-08-28T18:05:02.985Z,18.69
2017-08-28T18:10:02.225Z,18.52
2017-08-28T18:15:02.425Z,18.36
2017-08-28T18:20:03.030Z,18.19
2017-08-28T18:25:02.256Z,18.03
2017-08-28T18:30:02.509Z,17.85
2017-08-28T18:35:03.021Z,17.72
2017-08-28T18:40:02.212Z,17.56
2017-08-28T18:45:02.443Z,17.46
2017-08-28T18:50:02.935Z,17.32
2017-08-28T18:55:03.141Z,17.2
2017-08-28T19:00:02.367Z,17.08
2017-08-28T19:05:02.851Z,17
2017-08-28T19:10:03.074Z,16.9
2017-08-28T19:15:02.314Z,16.84
2017-08-28T19:20:02.964Z,16.77
2017-08-28T19:25:02.162Z,16.7
2017-08-28T19:30:02.349Z,16.61
2017-08-28T19:35:02.877Z,16.55
2017-08-28T19:40:03.097Z,16.46
2017-08-28T19:45:02.320Z,16.4
2017-08-28T19:50:02.230Z,16.32
2017-08-28T19:55:02.452Z,16.27
2017-08-28T20:00:02.649Z,16.19
2017-08-28T20:05:02.688Z,16.11
2017-08-28T20:10:02.924Z,16.03
2017-08-28T20:15:03.101Z,15.96
2017-08-28T20:20:02.904Z,15.89
2017-08-28T20:25:03.120Z,15.81
2017-08-28T20:30:02.345Z,15.75
2017-08-28T20:35:02.594Z,15.71
2017-08-28T20:40:02.807Z,15.67
2017-08-28T20:45:02.997Z,15.58
2017-08-28T20:50:02.502Z,15.52
2017-08-28T20:55:02.698Z,15.47
2017-08-28T21:00:02.921Z,15.41
2017-08-28T21:05:02.549Z,15.38
2017-08-28T21:10:02.706Z,15.31
2017-08-28T21:15:02.937Z,15.28
2017-08-28T21:20:02.896Z,15.24
2017-08-28T21:25:03.064Z,15.18
2017-08-28T21:30:02.253Z,15.16
2017-08-28T21:35:02.753Z,15.11
2017-08-28T21:40:02.964Z,15.12
2017-08-28T21:45:02.174Z,15.1
2017-08-28T21:50:02.586Z,15.07
2017-08-28T21:55:02.799Z,15.06
2017-08-28T22:00:03.198Z,15.06
2017-08-28T22:05:02.893Z,14.99
2017-08-28T22:10:02.269Z,14.91
2017-08-28T22:15:02.688Z,14.83
2017-08-28T22:20:02.772Z,14.79
2017-08-28T22:25:03.162Z,14.75
2017-08-28T22:30:02.523Z,14.71
2017-08-28T22:35:02.579Z,14.7
2017-08-28T22:40:02.924Z,14.69
2017-08-28T22:45:02.317Z,14.68
2017-08-28T22:50:02.760Z,14.65
2017-08-28T22:55:02.157Z,14.57
2017-08-28T23:00:02.544Z,14.53
2017-08-28T23:05:02.400Z,14.47
2017-08-28T23:10:02.603Z,14.44
2017-08-28T23:15:02.830Z,14.4
2017-08-28T23:20:02.329Z,14.4
2017-08-28T23:25:02.587Z,14.38
2017-08-28T23:30:02.772Z,14.36
2017-08-28T23:35:02.431Z,14.37
2017-08-28T23:40:02.627Z,14.38
2017-08-28T23:45:02.845Z,14.37
2017-08-28T23:50:02.351Z,14.35
2017-08-28T23:55:02.521Z,14.32
